Аэропорт: Нахичевань. Нахичевань

ICAO: UBBN

METAR:
2019/05/25 20:00
UBBN 252000Z 02008KT 9999 FEW050CB SCT100 21/08 Q1012 R14R/CLRD// NOSIG RMK MT OP QFE684
METAR:
2019/05/25 18:00
TAF UBBN 251708Z 2518/2618 VRB04KT 9999 SCT040 FEW050CB BKN100 TX29/2612Z TN14/2602Z 
      TEMPO 2518/2524 03010KT -TSRA SCT036CB BKN090 
      TEMPO 2610/2618 VRB12KT -TSRA SCT033CB OVC080